createdAt,value
2022-08-19T00:01:43.976Z,99.90
2022-08-19T00:04:34.679Z,99.90
2022-08-19T00:07:20.920Z,99.90
2022-08-19T00:10:07.407Z,99.90
2022-08-19T00:12:53.434Z,99.90
2022-08-19T00:15:39.223Z,99.90
2022-08-19T00:18:25.223Z,99.90
2022-08-19T00:21:10.870Z,99.90
2022-08-19T00:23:59.127Z,99.90
2022-08-19T00:26:45.612Z,99.90
2022-08-19T00:29:31.611Z,99.90
2022-08-19T00:32:17.103Z,99.90
2022-08-19T00:35:03.895Z,99.90
2022-08-19T00:37:50.287Z,99.90
2022-08-19T00:40:35.772Z,99.90
2022-08-19T00:43:22.998Z,99.90
2022-08-19T00:46:08.491Z,99.90
2022-08-19T00:48:53.973Z,99.90
2022-08-19T00:51:39.789Z,99.90
2022-08-19T00:54:31.159Z,99.90
2022-08-19T00:57:18.104Z,99.90
2022-08-19T01:00:05.563Z,99.90
2022-08-19T01:02:52.761Z,99.90
2022-08-19T01:05:39.478Z,99.90
2022-08-19T01:08:25.055Z,99.90
2022-08-19T01:11:10.696Z,99.90
2022-08-19T01:13:56.875Z,99.90
2022-08-19T01:16:42.878Z,99.90
2022-08-19T01:19:28.306Z,99.90
2022-08-19T01:22:33.498Z,99.90
2022-08-19T01:25:20.947Z,99.90
2022-08-19T01:28:10.827Z,99.90
2022-08-19T01:30:56.484Z,99.90
2022-08-19T01:33:42.432Z,99.90
2022-08-19T01:36:31.398Z,99.90
2022-08-19T01:39:18.723Z,99.90
2022-08-19T01:42:05.320Z,99.90
2022-08-19T01:44:50.901Z,99.90
2022-08-19T01:47:36.729Z,99.90
2022-08-19T01:50:22.718Z,99.90
2022-08-19T01:53:11.191Z,99.90
2022-08-19T01:55:57.103Z,99.90
2022-08-19T01:58:47.279Z,99.90
2022-08-19T02:01:32.932Z,99.90
2022-08-19T02:04:18.712Z,99.90
2022-08-19T02:07:04.549Z,99.90
2022-08-19T02:09:49.967Z,99.90
2022-08-19T02:12:36.363Z,99.90
2022-08-19T02:15:23.036Z,99.90
2022-08-19T02:18:09.320Z,99.90
2022-08-19T02:20:55.004Z,99.90
2022-08-19T02:23:40.732Z,99.90
2022-08-19T02:26:27.654Z,99.90
2022-08-19T02:29:13.322Z,99.90
2022-08-19T02:31:59.113Z,99.90
2022-08-19T02:34:44.579Z,99.90
2022-08-19T02:37:48.924Z,99.90
2022-08-19T02:40:37.393Z,99.90
2022-08-19T02:43:23.224Z,99.90
2022-08-19T02:46:15.912Z,99.90
2022-08-19T02:49:03.812Z,99.90
2022-08-19T02:51:49.388Z,99.90
2022-08-19T02:54:35.385Z,99.90
2022-08-19T02:57:20.819Z,99.90
2022-08-19T03:00:08.123Z,99.90
2022-08-19T03:02:54.551Z,99.90
2022-08-19T03:05:49.317Z,99.90
2022-08-19T03:08:44.798Z,99.90
2022-08-19T03:11:31.628Z,99.90
2022-08-19T03:14:19.009Z,99.90
2022-08-19T03:17:05.496Z,99.90
2022-08-19T03:19:51.012Z,99.90
2022-08-19T03:22:36.755Z,99.90
2022-08-19T03:25:22.391Z,99.90
2022-08-19T03:28:08.362Z,99.90
2022-08-19T03:30:59.077Z,99.90
2022-08-19T03:33:46.848Z,99.90
2022-08-19T03:36:36.636Z,99.90
2022-08-19T03:39:22.720Z,99.90
2022-08-19T03:42:38.913Z,99.90
2022-08-19T03:45:13.920Z,99.90
2022-08-19T03:47:59.365Z,99.90
2022-08-19T03:50:45.293Z,99.90
2022-08-19T03:53:31.736Z,99.90
2022-08-19T03:56:17.264Z,99.90
2022-08-19T03:59:04.043Z,99.90
2022-08-19T04:01:49.692Z,99.90
2022-08-19T04:04:35.903Z,99.90
2022-08-19T04:07:22.479Z,99.90
2022-08-19T04:10:08.205Z,99.90
2022-08-19T04:12:56.055Z,99.90
2022-08-19T04:15:42.609Z,99.90
2022-08-19T04:18:33.590Z,99.90
2022-08-19T04:21:23.420Z,99.90
2022-08-19T04:24:12.729Z,99.90
2022-08-19T04:26:59.967Z,99.90
2022-08-19T04:29:45.274Z,99.90
2022-08-19T04:32:32.940Z,99.90
2022-08-19T04:35:21.047Z,99.90
2022-08-19T04:38:09.625Z,99.90
2022-08-19T04:41:13.723Z,99.90
2022-08-19T04:44:03.764Z,99.90
2022-08-19T04:46:51.330Z,99.90
2022-08-19T04:49:37.734Z,99.90
2022-08-19T04:52:23.336Z,99.90
2022-08-19T04:55:09.737Z,99.90
2022-08-19T04:57:55.311Z,99.90
2022-08-19T05:00:41.216Z,99.90
2022-08-19T05:03:30.467Z,99.90
2022-08-19T05:06:17.376Z,99.90
2022-08-19T05:09:06.675Z,99.90
2022-08-19T05:11:54.508Z,99.90
2022-08-19T05:14:39.813Z,99.90
2022-08-19T05:17:27.922Z,99.90
2022-08-19T05:20:33.224Z,99.90
2022-08-19T05:23:22.738Z,99.90
2022-08-19T05:26:10.384Z,99.90
2022-08-19T05:28:56.299Z,99.90
2022-08-19T05:31:42.272Z,99.90
2022-08-19T05:34:27.659Z,99.90
2022-08-19T05:37:13.531Z,99.90
2022-08-19T05:39:59.143Z,99.90
2022-08-19T05:42:44.779Z,99.90
2022-08-19T05:45:41.151Z,99.90
2022-08-19T05:48:27.499Z,99.90
2022-08-19T05:51:13.648Z,99.90
2022-08-19T05:54:03.792Z,99.90
2022-08-19T05:56:49.461Z,99.90
2022-08-19T05:59:36.479Z,99.90
2022-08-19T06:02:24.825Z,99.90
2022-08-19T06:05:10.806Z,99.90
2022-08-19T06:07:56.980Z,99.90
2022-08-19T06:10:42.638Z,99.90
2022-08-19T06:13:29.153Z,99.90
2022-08-19T06:16:21.971Z,99.90
2022-08-19T06:19:09.162Z,99.90
2022-08-19T06:21:54.666Z,99.90
2022-08-19T06:24:40.044Z,99.90
2022-08-19T06:27:25.871Z,99.90
2022-08-19T06:30:12.403Z,99.90
2022-08-19T06:32:57.820Z,99.90
2022-08-19T06:35:46.683Z,99.90
2022-08-19T06:38:34.434Z,99.90
2022-08-19T06:41:20.353Z,99.90
2022-08-19T06:44:06.379Z,99.90
2022-08-19T06:46:54.564Z,99.90
2022-08-19T06:49:40.430Z,99.90
2022-08-19T06:52:26.168Z,99.90
2022-08-19T06:55:11.796Z,99.90
2022-08-19T06:57:57.496Z,99.90
2022-08-19T07:00:43.018Z,99.90
2022-08-19T07:03:32.828Z,99.90
2022-08-19T07:06:43.572Z,99.90
2022-08-19T07:09:26.736Z,99.90
2022-08-19T07:12:16.284Z,99.90
2022-08-19T07:15:02.024Z,99.90
2022-08-19T07:17:52.733Z,99.90
2022-08-19T07:20:38.360Z,99.90
2022-08-19T07:23:24.953Z,99.90
2022-08-19T07:26:27.678Z,99.90
2022-08-19T07:29:14.357Z,99.90
2022-08-19T07:32:01.529Z,99.90
2022-08-19T07:34:47.313Z,99.90
2022-08-19T07:37:33.481Z,99.90
2022-08-19T07:40:19.421Z,99.90
2022-08-19T07:43:04.836Z,99.90
2022-08-19T07:45:50.440Z,99.90
2022-08-19T07:48:36.033Z,99.90
2022-08-19T07:51:36.025Z,99.90
2022-08-19T07:54:24.988Z,99.90
2022-08-19T07:57:10.713Z,99.90
2022-08-19T07:59:57.200Z,99.90
2022-08-19T08:02:43.533Z,99.90
2022-08-19T08:05:47.616Z,99.90
2022-08-19T08:08:51.643Z,99.90
2022-08-19T08:11:49.827Z,99.90
2022-08-19T08:14:50.386Z,99.90
2022-08-19T08:17:49.065Z,99.90
2022-08-19T08:20:36.702Z,99.90
2022-08-19T08:23:26.249Z,99.90
2022-08-19T08:26:13.996Z,99.90
2022-08-19T08:29:02.428Z,99.90
2022-08-19T08:32:00.062Z,99.90
2022-08-19T08:34:47.392Z,99.90
2022-08-19T08:37:37.613Z,99.90
2022-08-19T08:40:28.714Z,99.90
2022-08-19T08:43:27.655Z,99.90
2022-08-19T08:46:41.921Z,99.90
2022-08-19T08:49:35.069Z,99.90
2022-08-19T08:52:31.880Z,99.90
2022-08-19T08:55:24.650Z,99.90
2022-08-19T08:58:18.797Z,99.90
2022-08-19T09:01:04.375Z,99.90
2022-08-19T09:03:49.905Z,99.90
2022-08-19T09:06:56.236Z,99.90
2022-08-19T09:09:49.655Z,99.90
2022-08-19T09:12:39.306Z,99.90
2022-08-19T09:15:33.769Z,99.90
2022-08-19T09:18:22.650Z,99.90
2022-08-19T09:21:09.801Z,99.90
2022-08-19T09:23:55.493Z,99.90
2022-08-19T09:26:52.333Z,99.90
2022-08-19T09:29:38.556Z,99.90
2022-08-19T09:32:26.246Z,99.90
2022-08-19T09:35:13.632Z,99.90
2022-08-19T09:38:00.479Z,99.90
2022-08-19T09:40:45.996Z,99.90
2022-08-19T09:43:33.726Z,99.90
2022-08-19T09:46:30.030Z,99.90
2022-08-19T09:49:20.076Z,99.90
2022-08-19T09:52:08.936Z,99.90
2022-08-19T09:54:59.464Z,99.90
2022-08-19T09:57:45.312Z,99.90
2022-08-19T10:00:31.975Z,99.90
2022-08-19T10:03:17.734Z,99.90
2022-08-19T10:06:06.000Z,99.90
2022-08-19T10:09:01.529Z,99.90
2022-08-19T10:11:54.543Z,99.90
2022-08-19T10:14:40.839Z,99.90
2022-08-19T10:17:27.415Z,99.40
2022-08-19T10:20:17.981Z,98.60
2022-08-19T10:23:04.836Z,99.30
2022-08-19T10:25:50.787Z,99.90
2022-08-19T10:28:40.308Z,99.90
2022-08-19T10:31:59.707Z,99.90
2022-08-19T10:34:48.448Z,98.40
2022-08-19T10:37:37.858Z,96.50
2022-08-19T10:40:35.989Z,94.30
2022-08-19T10:43:21.729Z,92.40
2022-08-19T10:46:14.174Z,92.50
2022-08-19T10:49:03.164Z,93.40
2022-08-19T10:52:07.529Z,94.30
2022-08-19T10:55:14.619Z,92.80
2022-08-19T10:58:02.502Z,92.10
2022-08-19T11:00:54.465Z,91.40
2022-08-19T11:03:40.009Z,92.20
2022-08-19T11:06:28.386Z,91.80
2022-08-19T11:09:33.281Z,92.90
2022-08-19T11:12:20.459Z,93.00
2022-08-19T11:15:08.739Z,90.80
2022-08-19T11:17:55.427Z,87.90
2022-08-19T11:20:41.116Z,89.70
2022-08-19T11:23:26.770Z,88.70
2022-08-19T11:26:12.753Z,90.00
2022-08-19T11:28:59.578Z,83.90
2022-08-19T11:31:47.935Z,85.30
2022-08-19T11:34:33.889Z,84.70
2022-08-19T11:37:19.753Z,86.70
2022-08-19T11:40:07.166Z,86.40
2022-08-19T11:42:56.524Z,87.10
2022-08-19T11:45:42.468Z,87.60
2022-08-19T11:48:27.991Z,87.20
2022-08-19T11:51:17.055Z,85.40
2022-08-19T11:54:03.066Z,87.00
2022-08-19T11:56:49.983Z,87.70
2022-08-19T11:59:35.358Z,88.40
2022-08-19T12:02:21.184Z,87.60
2022-08-19T12:05:11.964Z,87.90
2022-08-19T12:07:58.401Z,86.50
2022-08-19T12:10:46.339Z,85.60
2022-08-19T12:13:32.351Z,84.70
2022-08-19T12:16:27.880Z,84.30
2022-08-19T12:19:14.780Z,83.70
2022-08-19T12:22:08.620Z,85.10
2022-08-19T12:24:54.817Z,84.50
2022-08-19T12:27:41.661Z,83.90
2022-08-19T12:30:28.832Z,83.40
2022-08-19T12:33:14.751Z,82.90
2022-08-19T12:36:10.849Z,81.20
2022-08-19T12:38:58.600Z,79.00
2022-08-19T12:41:51.292Z,78.60
2022-08-19T12:44:42.657Z,79.60
2022-08-19T12:47:28.157Z,78.60
2022-08-19T12:50:13.806Z,79.10
2022-08-19T12:52:59.208Z,77.50
2022-08-19T12:55:44.846Z,78.10
2022-08-19T12:58:30.712Z,76.60
2022-08-19T13:01:18.250Z,75.70
2022-08-19T13:04:08.773Z,75.20
2022-08-19T13:06:54.339Z,74.70
2022-08-19T13:09:43.419Z,72.00
2022-08-19T13:12:28.798Z,71.90
2022-08-19T13:15:16.901Z,71.50
2022-08-19T13:18:04.802Z,70.90
2022-08-19T13:20:52.943Z,70.10
2022-08-19T13:23:38.860Z,68.80
2022-08-19T13:26:25.049Z,69.40
2022-08-19T13:29:29.051Z,68.40
2022-08-19T13:32:33.016Z,67.90
2022-08-19T13:35:19.477Z,67.50
2022-08-19T13:38:05.871Z,66.60
2022-08-19T13:41:09.933Z,66.20
2022-08-19T13:43:58.040Z,63.70
2022-08-19T13:46:45.577Z,62.20
2022-08-19T13:49:31.974Z,62.50
2022-08-19T13:52:17.473Z,62.30
2022-08-19T13:55:03.385Z,61.30
2022-08-19T13:57:57.764Z,61.80
2022-08-19T14:00:46.207Z,60.90
2022-08-19T14:03:32.304Z,59.20
2022-08-19T14:06:18.384Z,59.90
2022-08-19T14:09:05.592Z,59.80
2022-08-19T14:11:51.850Z,61.30
2022-08-19T14:14:39.131Z,61.60
2022-08-19T14:17:24.550Z,62.90
2022-08-19T14:20:17.622Z,63.90
2022-08-19T14:23:06.618Z,64.20
2022-08-19T14:25:52.292Z,64.00
2022-08-19T14:28:38.575Z,62.30
2022-08-19T14:31:29.017Z,59.40
2022-08-19T14:34:16.565Z,58.10
2022-08-19T14:37:02.231Z,58.00
2022-08-19T14:39:47.617Z,57.50
2022-08-19T14:42:33.053Z,57.20
2022-08-19T14:45:18.893Z,57.10
2022-08-19T14:48:18.817Z,57.20
2022-08-19T14:51:05.864Z,57.00
2022-08-19T14:53:52.052Z,56.60
2022-08-19T14:56:37.612Z,56.20
2022-08-19T14:59:23.282Z,55.80
2022-08-19T15:02:20.414Z,55.00
2022-08-19T15:05:14.374Z,54.80
2022-08-19T15:08:04.628Z,56.00
2022-08-19T15:10:50.347Z,56.30
2022-08-19T15:13:36.842Z,56.60
2022-08-19T15:16:23.435Z,56.00
2022-08-19T15:19:09.965Z,56.90
2022-08-19T15:21:55.777Z,57.60
2022-08-19T15:24:47.895Z,58.60
2022-08-19T15:27:34.024Z,59.50
2022-08-19T15:30:25.609Z,60.50
2022-08-19T15:33:15.249Z,60.40
2022-08-19T15:36:00.990Z,60.60
2022-08-19T15:38:46.772Z,61.00
2022-08-19T15:41:34.492Z,61.90
2022-08-19T15:44:22.740Z,61.80
2022-08-19T15:47:08.265Z,61.10
2022-08-19T15:49:56.691Z,60.30
2022-08-19T15:52:51.612Z,59.50
2022-08-19T15:55:43.983Z,60.10
2022-08-19T15:58:48.141Z,60.30
2022-08-19T16:01:53.184Z,60.50
2022-08-19T16:04:56.981Z,61.30
2022-08-19T16:07:43.149Z,62.40
2022-08-19T16:10:29.187Z,63.40
2022-08-19T16:13:14.668Z,64.50
2022-08-19T16:16:00.172Z,65.50
2022-08-19T16:18:47.331Z,66.30
2022-08-19T16:21:34.299Z,67.00
2022-08-19T16:24:23.679Z,68.00
2022-08-19T16:27:09.514Z,68.50
2022-08-19T16:29:55.076Z,69.10
2022-08-19T16:32:43.922Z,69.20
2022-08-19T16:35:29.862Z,69.20
2022-08-19T16:38:15.647Z,69.30
2022-08-19T16:41:01.717Z,69.60
2022-08-19T16:43:49.305Z,69.90
2022-08-19T16:46:36.117Z,69.80
2022-08-19T16:49:52.172Z,69.50
2022-08-19T16:52:27.993Z,70.00
2022-08-19T16:55:13.707Z,70.60
2022-08-19T16:58:04.330Z,70.60
2022-08-19T17:00:50.052Z,70.20
2022-08-19T17:03:37.560Z,70.80
2022-08-19T17:06:28.799Z,69.90
2022-08-19T17:09:16.046Z,70.50
2022-08-19T17:12:02.043Z,71.10
2022-08-19T17:14:47.691Z,71.00
2022-08-19T17:17:33.352Z,72.20
2022-08-19T17:20:19.645Z,72.20
2022-08-19T17:23:05.569Z,72.50
2022-08-19T17:25:51.721Z,72.10
2022-08-19T17:28:37.588Z,72.80
2022-08-19T17:31:24.866Z,68.70
2022-08-19T17:34:10.678Z,70.70
2022-08-19T17:36:57.005Z,68.90
2022-08-19T17:39:42.634Z,70.10
2022-08-19T17:42:28.319Z,70.40
2022-08-19T17:45:14.655Z,70.70
2022-08-19T17:48:01.404Z,69.50
2022-08-19T17:50:47.732Z,70.70
2022-08-19T17:53:33.601Z,71.90
2022-08-19T17:56:21.708Z,71.90
2022-08-19T17:59:11.781Z,71.20
2022-08-19T18:02:00.263Z,73.00
2022-08-19T18:04:48.803Z,72.40
2022-08-19T18:07:34.661Z,72.40
2022-08-19T18:10:23.144Z,72.30
2022-08-19T18:13:18.112Z,73.20
2022-08-19T18:16:10.323Z,73.00
2022-08-19T18:18:55.984Z,73.30
2022-08-19T18:21:41.415Z,73.50
2022-08-19T18:24:27.078Z,73.50
2022-08-19T18:27:13.124Z,73.20
2022-08-19T18:29:59.672Z,74.00
2022-08-19T18:32:49.287Z,73.60
2022-08-19T18:35:38.568Z,74.00
2022-08-19T18:38:42.655Z,74.30
2022-08-19T18:41:46.958Z,75.10
2022-08-19T18:44:50.915Z,76.00
2022-08-19T18:47:54.958Z,76.70
2022-08-19T18:50:43.829Z,76.80
2022-08-19T18:53:33.529Z,77.30
2022-08-19T18:56:20.285Z,77.80
2022-08-19T18:59:05.908Z,78.10
2022-08-19T19:01:54.360Z,78.70
2022-08-19T19:04:40.448Z,79.10
2022-08-19T19:07:27.449Z,79.30
2022-08-19T19:10:13.241Z,79.80
2022-08-19T19:13:01.313Z,80.10
2022-08-19T19:15:46.632Z,80.30
2022-08-19T19:18:33.378Z,80.40
2022-08-19T19:21:20.993Z,80.70
2022-08-19T19:24:08.994Z,81.00
2022-08-19T19:26:55.553Z,81.50
2022-08-19T19:29:42.389Z,81.70
2022-08-19T19:32:36.907Z,81.90
2022-08-19T19:35:24.627Z,82.00
2022-08-19T19:38:10.569Z,82.10
2022-08-19T19:40:56.534Z,82.10
2022-08-19T19:43:43.040Z,82.40
2022-08-19T19:46:29.831Z,82.40
2022-08-19T19:49:15.406Z,82.70
2022-08-19T19:52:00.909Z,83.10
2022-08-19T19:54:47.849Z,83.30
2022-08-19T19:57:33.349Z,83.90
2022-08-19T20:00:19.667Z,84.20
2022-08-19T20:03:06.423Z,84.20
2022-08-19T20:05:52.519Z,84.90
2022-08-19T20:08:58.932Z,86.00
2022-08-19T20:11:57.016Z,87.00
2022-08-19T20:14:43.645Z,86.60
2022-08-19T20:17:29.151Z,86.60
2022-08-19T20:20:16.174Z,87.00
2022-08-19T20:23:01.761Z,87.90
2022-08-19T20:25:48.075Z,87.70
2022-08-19T20:28:33.704Z,87.70
2022-08-19T20:31:20.326Z,88.10
2022-08-19T20:34:05.826Z,87.60
2022-08-19T20:36:51.372Z,88.20
2022-08-19T20:39:37.644Z,89.10
2022-08-19T20:42:23.917Z,89.40
2022-08-19T20:45:28.096Z,89.90
2022-08-19T20:48:18.201Z,90.20
2022-08-19T20:51:04.487Z,91.10
2022-08-19T20:53:51.169Z,91.30
2022-08-19T20:56:36.804Z,91.20
2022-08-19T20:59:23.865Z,90.70
2022-08-19T21:02:10.357Z,90.60
2022-08-19T21:04:56.652Z,90.70
2022-08-19T21:07:46.325Z,90.40
2022-08-19T21:10:32.618Z,90.40
2022-08-19T21:13:19.976Z,90.30
2022-08-19T21:16:09.012Z,90.50
2022-08-19T21:18:55.208Z,90.60
2022-08-19T21:21:40.867Z,90.60
2022-08-19T21:24:31.572Z,90.30
2022-08-19T21:27:17.429Z,90.70
2022-08-19T21:30:04.413Z,91.00
2022-08-19T21:32:52.559Z,91.70
2022-08-19T21:35:38.945Z,92.20
2022-08-19T21:38:24.785Z,92.50
2022-08-19T21:41:10.449Z,92.70
2022-08-19T21:43:55.871Z,93.00
2022-08-19T21:46:41.490Z,93.30
2022-08-19T21:49:28.032Z,93.70
2022-08-19T21:52:13.839Z,93.90
2022-08-19T21:54:59.466Z,94.30
2022-08-19T21:57:44.984Z,94.40
2022-08-19T22:00:34.561Z,94.50
2022-08-19T22:03:21.501Z,94.50
2022-08-19T22:06:08.427Z,94.70
2022-08-19T22:08:56.979Z,94.90
2022-08-19T22:11:44.454Z,95.10
2022-08-19T22:14:30.184Z,95.40
2022-08-19T22:17:16.569Z,95.70
2022-08-19T22:20:04.069Z,96.10
2022-08-19T22:22:56.957Z,96.40
2022-08-19T22:25:45.653Z,96.70
2022-08-19T22:28:31.129Z,96.90
2022-08-19T22:31:18.365Z,97.20
2022-08-19T22:34:06.417Z,97.50
2022-08-19T22:36:52.348Z,97.80
2022-08-19T22:39:37.970Z,98.20
2022-08-19T22:42:25.361Z,98.60
2022-08-19T22:45:18.013Z,99.00
2022-08-19T22:48:07.866Z,99.30
2022-08-19T22:51:12.108Z,99.70
2022-08-19T22:53:57.775Z,99.90
2022-08-19T22:56:43.554Z,99.90
2022-08-19T22:59:29.621Z,99.90
2022-08-19T23:02:24.537Z,99.90
2022-08-19T23:05:11.166Z,99.90
2022-08-19T23:07:58.580Z,99.90
2022-08-19T23:10:44.257Z,99.90
2022-08-19T23:13:31.817Z,99.90
2022-08-19T23:16:17.693Z,99.90
2022-08-19T23:19:03.341Z,99.90
2022-08-19T23:21:49.849Z,99.90
2022-08-19T23:24:35.578Z,99.90
2022-08-19T23:27:39.418Z,99.90
2022-08-19T23:30:27.694Z,99.90
2022-08-19T23:33:21.525Z,99.90
2022-08-19T23:36:11.968Z,99.90
2022-08-19T23:38:59.620Z,99.90
2022-08-19T23:41:45.171Z,99.90
2022-08-19T23:44:30.617Z,99.90
2022-08-19T23:47:16.188Z,99.90
2022-08-19T23:50:06.395Z,99.90
2022-08-19T23:52:55.103Z,99.90
2022-08-19T23:55:44.113Z,99.90
2022-08-19T23:58:30.238Z,99.90
